ADDS METAR Data INFO
IDs: Format: Raw Decoded Include TAF

Data at: 0608 UTC 25 Jun 2018

KT82 250555Z AUTO 16007KT 10SM CLR 25/20 A2994 RMK AO2 T02460195 10334 20246 403630230
KT82 250535Z AUTO 16008G16KT 10SM CLR 25/19 A2995 RMK AO2 T02500191
KT82 250515Z AUTO 16010KT 10SM CLR 25/19 A2994 RMK AO2 T02540190
KT82 250455Z AUTO 15006G14KT 10SM CLR 26/19 A2994 RMK AO2 T02570190
KT82 250435Z AUTO 15007KT 10SM CLR 26/19 A2993 RMK AO2 T02600188
KT82 250415Z AUTO 15012G17KT 10SM CLR 26/19 A2993 RMK AO2 T02640191
KT82 250355Z AUTO 17012G17KT 10SM SCT033 27/19 A2993 RMK AO2 T02680192
KT82 250335Z AUTO 15009KT 10SM SCT035 27/19 A2993 RMK AO2 T02710193
KT82 250315Z AUTO 15008G15KT 10SM SCT037 28/19 A2991 RMK AO2 T02760191
KT82 250255Z AUTO 16008KT 10SM SCT037 28/19 A2991 RMK AO2 T02800190
KT82 250235Z AUTO 15008KT 10SM CLR 28/18 A2989 RMK AO2 T02840182
KT82 250215Z AUTO 15003KT 10SM CLR 29/18 A2988 RMK AO2 T02880176
KT82 250155Z AUTO 16007KT 10SM CLR 29/18 A2987 RMK AO2 T02940176
KT82 250135Z AUTO 17009G15KT 10SM CLR 30/18 A2986 RMK AO2 T02970177
KT82 250115Z AUTO 17010G15KT 10SM CLR 31/17 A2985 RMK AO2 T03050173
KT82 250055Z AUTO 16009G17KT 10SM CLR 31/17 A2985 RMK AO2 T03130173
KT82 250035Z AUTO 17013G19KT 10SM CLR 32/17 A2984 RMK AO2 T03200169
KT82 250015Z AUTO 17014G20KT 10SM CLR 33/17 A2984 RMK AO2 T03270165
KT82 242355Z AUTO 17016G22KT 10SM CLR 34/16 A2983 RMK AO2 T03350157 10363 20330
KT82 242335Z AUTO 15013G19KT 10SM CLR 34/16 A2983 RMK AO2 T03380155
KT82 242315Z AUTO 15012G20KT 10SM CLR 34/16 A2983 RMK AO2 T03410156
KT82 242255Z AUTO 17011G16KT 10SM CLR 35/15 A2984 RMK AO2 T03470149
KT82 242235Z AUTO 16015G23KT 10SM CLR 35/15 A2984 RMK AO2 T03480153
KT82 242215Z AUTO 16014G22KT 10SM CLR 35/15 A2984 RMK AO2 T03500149
KT82 242155Z AUTO 15011G24KT 10SM CLR 35/15 A2985 RMK AO2 T03510153
KT82 242135Z AUTO 18017G24KT 10SM CLR 36/15 A2986 RMK AO2 T03550147
KT82 242115Z AUTO 16012G22KT 10SM CLR 36/15 A2986 RMK AO2 T03600152
KT82 242055Z AUTO 16016G24KT 10SM CLR 36/15 A2987 RMK AO2 T03570150
KT82 242035Z AUTO 16013G21KT 10SM CLR 36/16 A2987 RMK AO2 T03580155
KT82 242015Z AUTO 14011G18KT 110V170 10SM CLR 36/16 A2987 RMK AO2 T03560157
KT82 241955Z AUTO 16014G20KT 10SM CLR 36/15 A2987 RMK AO2 T03610154
KT82 241935Z AUTO 15011G16KT 120V180 10SM CLR 36/16 A2988 RMK AO2 T03600155
KT82 241915Z AUTO 16009G19KT 120V200 10SM CLR 35/16 A2988 RMK AO2 T03490156
KT82 241855Z AUTO 19013KT 10SM CLR 34/16 A2988 RMK AO2 T03430161
KT82 241835Z AUTO 20015G20KT 10SM CLR 34/16 A2988 RMK AO2 T03420161
KT82 241815Z AUTO 19011G18KT 10SM CLR 34/17 A2989 RMK AO2 T03420166
KT82 241755Z AUTO 19012G16KT 10SM CLR 33/18 A2989 RMK AO2 T03270183 10328 20234
KT82 241735Z AUTO 20011G19KT 10SM CLR 32/19 A2989 RMK AO2 T03240186
KT82 241715Z AUTO 19011G19KT 10SM CLR 32/19 A2989 RMK AO2 T03190188
KT82 241655Z AUTO 20013G18KT 10SM SCT033 31/19 A2988 RMK AO2 T03120188
KT82 241635Z AUTO 21015G21KT 10SM SCT033 31/19 A2989 RMK AO2 T03060189
KT82 241615Z AUTO 18011G20KT 160V220 10SM SCT031 30/19 A2989 RMK AO2 T03030191
KT82 241555Z AUTO 19016G21KT 10SM SCT029 29/19 A2989 RMK AO2 T02920191
KT82 241535Z AUTO 21015G22KT 10SM BKN027 29/19 A2990 RMK AO2 T02870191
KT82 241515Z AUTO 21016G21KT 10SM OVC027 27/19 A2990 RMK AO2 T02710188
KT82 241455Z AUTO 20014G22KT 10SM OVC025 27/19 A2990 RMK AO2 T02670190
KT82 241435Z AUTO 19016G21KT 10SM BKN025 OVC037 27/19 A2990 RMK AO2 T02690189
KT82 241415Z AUTO 19015G20KT 10SM BKN023 BKN028 OVC037 26/19 A2990 RMK AO2 T02580190
KT82 241355Z AUTO 19013G20KT 10SM BKN021 OVC035 25/19 A2990 RMK AO2 T02540191
KT82 241335Z AUTO 20012G17KT 170V240 10SM OVC021 26/19 A2990 RMK AO2 T02550192
KT82 241315Z AUTO 19010G16KT 10SM OVC017 25/19 A2988 RMK AO2 T02470193
KT82 241255Z AUTO 19006G14KT 10SM OVC015 24/20 A2988 RMK AO2 T02410195
KT82 241235Z AUTO 19010G15KT 10SM OVC015 24/20 A2987 RMK AO2 T02380195
KT82 241215Z AUTO 19006G15KT 10SM OVC015 24/20 A2987 RMK AO2 T02360195
KT82 241155Z AUTO 19010KT 10SM OVC015 23/20 A2986 RMK AO2 T02330195 10270 20230
KT82 241135Z AUTO 19009KT 10SM OVC015 23/20 A2987 RMK AO2 T02310195
KT82 241115Z AUTO 18005KT 10SM OVC015 23/20 A2987 RMK AO2 T02320197
KT82 241055Z AUTO 17007KT 10SM OVC015 23/20 A2987 RMK AO2 T02320198
KT82 241035Z AUTO 18006KT 10SM BKN015 23/20 A2988 RMK AO2 T02320198
KT82 241015Z AUTO 17009KT 10SM BKN015 24/20 A2988 RMK AO2 T02350200
KT82 240955Z AUTO 18008KT 10SM BKN013 24/20 A2988 RMK AO2 T02360201
KT82 240935Z AUTO 17010KT 10SM SCT013 24/20 A2987 RMK AO2 T02370204
KT82 240915Z AUTO 17010G15KT 10SM SCT014 24/21 A2989 RMK AO2 T02400206
KT82 240855Z AUTO 16008G14KT 10SM SCT014 25/21 A2990 RMK AO2 T02450208
KT82 240835Z AUTO 00000KT 10SM SCT014 SCT020 25/21 A2991 RMK AO2 T02460210
KT82 240815Z AUTO 15003KT 10SM SCT014 SCT018 25/22 A2991 RMK AO2 T02500215
KT82 240755Z AUTO 15008KT 10SM CLR 25/22 A2990 RMK AO2 T02530216
KT82 240735Z AUTO 16007KT 10SM CLR 26/22 A2991 RMK AO2 T02550216
KT82 240715Z AUTO 15004KT 10SM SCT044 26/22 A2992 RMK AO2 T02590215
KT82 240655Z AUTO 00000KT 10SM BKN042 26/22 A2993 RMK AO2 T02630216
KT82 240635Z AUTO 16007KT 10SM SCT021 BKN033 OVC038 27/22 A2993 RMK AO2 LTG DSNT NE T02660217
KT82 240615Z AUTO 15006KT 10SM SCT020 BKN026 OVC031 27/22 A2992 RMK AO2 LTG DSNT NE T02670217
KT82 240555Z AUTO 00000KT 10SM BKN020 OVC031 27/22 A2992 RMK AO2 T02700220 10342 20270 403690241
KT82 240535Z AUTO 16003KT 10SM BKN020 OVC028 27/22 A2990 RMK AO2 LTG DSNT NE T02710222
KT82 240515Z AUTO 17010G17KT 10SM BKN020 OVC028 27/22 A2989 RMK AO2 LTG DSNT N T02730223
KT82 240455Z AUTO 16010KT 10SM OVC022 28/22 A2987 RMK AO2 LTG DSNT N T02760221
KT82 240435Z AUTO 17009G17KT 10SM OVC024 28/22 A2986 RMK AO2 T02770220
KT82 240415Z AUTO 16012G16KT 10SM BKN024 28/22 A2985 RMK AO2 T02800220
KT82 240355Z AUTO 15011G14KT 10SM SCT026 28/22 A2984 RMK AO2 T02800218
KT82 240335Z AUTO 16006KT 10SM SCT026 SCT031 28/22 A2984 RMK AO2 T02830216
KT82 240315Z AUTO 16010G15KT 10SM SCT028 29/21 A2982 RMK AO2 T02870212
KT82 240255Z AUTO 16008G19KT 10SM CLR 29/21 A2980 RMK AO2 T02940207
KT82 240235Z AUTO 16009KT 10SM CLR 30/20 A2978 RMK AO2 T02980199
KT82 240215Z AUTO 17009KT 10SM CLR 30/19 A2977 RMK AO2 T03030193
KT82 240155Z AUTO 16010G16KT 120V180 10SM CLR 31/19 A2977 RMK AO2 T03090186
KT82 240135Z AUTO 17010G16KT 10SM CLR 31/19 A2977 RMK AO2 T03140186
KT82 240115Z AUTO 16011G16KT 10SM CLR 32/19 A2977 RMK AO2 T03190186
KT82 240055Z AUTO 17012G19KT 10SM CLR 33/19 A2977 RMK AO2 T03260185
KT82 240035Z AUTO 16012G19KT 10SM CLR 33/19 A2977 RMK AO2 T03300185
KT82 240015Z AUTO 16012G20KT 10SM CLR 34/19 A2977 RMK AO2 T03370185
KT82 232355Z AUTO 17011G20KT 10SM CLR 34/18 A2976 RMK AO2 T03420184 10369 20335
KT82 232335Z AUTO 17013G19KT 10SM CLR 35/18 A2977 RMK AO2 T03470183
KT82 232315Z AUTO 17015G19KT 10SM SCT060 35/18 A2977 RMK AO2 T03500181
KT82 232255Z AUTO 16012G19KT 10SM CLR 36/18 A2977 RMK AO2 T03550177
KT82 232235Z AUTO 17014G18KT 10SM CLR 36/18 A2977 RMK AO2 T03590175
KT82 232215Z AUTO 16010G17KT 10SM CLR 37/18 A2977 RMK AO2 T03650175
KT82 232155Z AUTO 16009G17KT 10SM CLR 37/17 A2978 RMK AO2 T03680174
KT82 232135Z AUTO 20013G18KT 10SM CLR 36/17 A2978 RMK AO2 T03610172
KT82 232115Z AUTO 17011G20KT 10SM CLR 36/17 A2979 RMK AO2 T03630174
KT82 232055Z AUTO 18012G19KT 10SM CLR 37/18 A2980 RMK AO2 T03650175
KT82 232035Z AUTO 17015G23KT 10SM CLR 36/17 A2980 RMK AO2 T03590173
KT82 232015Z AUTO 16012G19KT 10SM CLR 36/17 A2980 RMK AO2 T03570173
KT82 231955Z AUTO 17013G19KT 10SM CLR 36/17 A2981 RMK AO2 T03620170
KT82 231935Z AUTO 18015G22KT 10SM CLR 35/17 A2982 RMK AO2 T03510167
KT82 231915Z AUTO 16011G21KT 10SM CLR 35/17 A2982 RMK AO2 T03530170
KT82 231855Z AUTO 17012G22KT 10SM CLR 36/17 A2983 RMK AO2 T03560170
KT82 231835Z AUTO 20014G22KT 10SM CLR 35/17 A2984 RMK AO2 T03480168
KT82 231815Z AUTO 20016G23KT 10SM CLR 34/17 A2985 RMK AO2 T03420165